Time;durP1;ratioP1;P1;durP2;ratioP2;P2;SDS_P1;SDS_P2;PMS_P1;PMS_P2;Temp;Humidity;BMP_temperature;BMP_pressure;BME280_temperature;BME280_humidity;BME280_pressure;Samples;Min_cycle;Max_cycle;Signal;HPM_P1;HPM_P2
2024/01/01 00:01:47;;;;;;;19.37;18.67;;;22.40;50.80;;;;;;5003767;28;20494;-68
2024/01/01 00:04:14;;;;;;;19.50;18.40;;;22.40;50.80;;;;;;5008421;28;20506;-68
2024/01/01 00:06:41;;;;;;;18.40;17.80;;;22.40;50.90;;;;;;5002596;28;20481;-69
2024/01/01 00:09:08;;;;;;;18.87;18.17;;;22.40;50.90;;;;;;5002477;28;20453;-67
2024/01/01 00:11:37;;;;;;;19.27;18.37;;;22.40;50.70;;;;;;5005359;28;20481;-69
2024/01/01 00:14:05;;;;;;;19.53;18.73;;;22.40;50.60;;;;;;5007693;28;20962;-69
2024/01/01 00:16:33;;;;;;;18.87;18.17;;;22.40;50.60;;;;;;5002584;28;20447;-68
2024/01/01 00:19:00;;;;;;;18.20;17.33;;;22.40;50.40;;;;;;5002783;28;20470;-68
2024/01/01 00:21:28;;;;;;;18.83;18.13;;;22.50;50.40;;;;;;5010548;28;20509;-69
2024/01/01 00:23:55;;;;;;;19.60;18.70;;;22.40;50.20;;;;;;5002909;28;20478;-68
2024/01/01 00:26:22;;;;;;;18.60;17.90;;;22.50;50.20;;;;;;5003876;28;20810;-69
2024/01/01 00:28:48;;;;;;;17.90;17.30;;;22.40;50.10;;;;;;5002516;28;20475;-67
2024/01/01 00:31:17;;;;;;;18.60;17.90;;;22.50;50.10;;;;;;4998947;28;20498;-69
2024/01/01 00:33:44;;;;;;;19.40;18.50;;;22.40;50.00;;;;;;5002023;28;20435;-69
2024/01/01 00:36:10;;;;;;;17.37;16.77;;;22.40;49.90;;;;;;5002434;28;20478;-69
2024/01/01 00:38:37;;;;;;;17.90;17.27;;;22.50;49.90;;;;;;5006114;28;20477;-72
2024/01/01 00:41:04;;;;;;;18.73;18.13;;;22.50;49.80;;;;;;5005894;28;20489;-69
2024/01/01 00:43:32;;;;;;;17.33;16.73;;;22.50;49.70;;;;;;5005208;28;20510;-69
2024/01/01 00:45:59;;;;;;;19.23;18.43;;;22.50;49.80;;;;;;5004745;28;20438;-71
2024/01/01 00:48:27;;;;;;;18.10;17.40;;;22.50;49.70;;;;;;5002965;28;20492;-69
2024/01/01 00:50:54;;;;;;;18.60;17.90;;;22.50;49.70;;;;;;5001787;28;20439;-69
2024/01/01 00:53:21;;;;;;;18.07;17.40;;;22.50;49.70;;;;;;5003538;28;20462;-69
2024/01/01 00:55:48;;;;;;;18.90;18.20;;;22.50;49.60;;;;;;5007412;28;20473;-69
2024/01/01 00:58:15;;;;;;;17.97;17.37;;;22.50;49.60;;;;;;5004910;28;20471;-69
2024/01/01 01:00:41;;;;;;;18.53;17.83;;;22.50;49.60;;;;;;5001717;28;20868;-69
2024/01/01 01:03:08;;;;;;;19.23;18.50;;;22.50;49.50;;;;;;5001617;28;20537;-69
2024/01/01 01:05:37;;;;;;;17.80;17.20;;;22.50;49.40;;;;;;5005057;28;20465;-68
2024/01/01 01:08:04;;;;;;;18.27;17.67;;;22.50;49.40;;;;;;5005019;28;20478;-68
2024/01/01 01:10:31;;;;;;;17.77;17.17;;;22.50;49.40;;;;;;5002194;28;20533;-70
2024/01/01 01:12:58;;;;;;;18.10;17.50;;;22.50;49.40;;;;;;4999536;28;20490;-69
2024/01/01 01:15:28;;;;;;;19.40;18.73;;;22.50;49.30;;;;;;5004657;28;20482;-72
2024/01/01 01:17:55;;;;;;;18.50;17.80;;;22.50;49.30;;;;;;5006746;28;20442;-71
2024/01/01 01:20:22;;;;;;;18.20;17.60;;;22.50;49.20;;;;;;5001164;28;20451;-71
2024/01/01 01:22:50;;;;;;;17.17;16.67;;;22.50;49.20;;;;;;5000415;28;20553;-72
2024/01/01 01:25:18;;;;;;;16.50;16.00;;;22.50;49.30;;;;;;5005419;28;20482;-69
2024/01/01 01:27:46;;;;;;;17.93;17.23;;;22.50;49.20;;;;;;5005128;28;20500;-69
2024/01/01 01:30:13;;;;;;;18.33;17.53;;;22.50;49.20;;;;;;5004324;28;20469;-69
2024/01/01 01:32:40;;;;;;;19.27;18.50;;;22.50;49.20;;;;;;4999020;28;20501;-69
2024/01/01 01:35:07;;;;;;;17.97;17.30;;;22.50;49.20;;;;;;5005399;28;20872;-69
2024/01/01 01:37:34;;;;;;;18.23;17.53;;;22.50;49.20;;;;;;5010048;28;20885;-69
2024/01/01 01:40:03;;;;;;;18.03;17.33;;;22.50;49.20;;;;;;4994074;28;20494;-69
2024/01/01 01:42:30;;;;;;;17.47;16.87;;;22.50;49.10;;;;;;5003783;28;20471;-69
2024/01/01 01:44:57;;;;;;;17.47;16.87;;;22.50;49.10;;;;;;5004987;28;20476;-69
2024/01/01 01:47:25;;;;;;;17.77;17.17;;;22.50;49.10;;;;;;4995866;28;20479;-69
2024/01/01 01:49:52;;;;;;;17.43;16.73;;;22.50;49.00;;;;;;5003753;28;20473;-70
2024/01/01 01:52:21;;;;;;;17.10;16.50;;;22.50;49.00;;;;;;5003590;28;20895;-69
2024/01/01 01:54:50;;;;;;;17.20;16.60;;;22.50;48.90;;;;;;4998869;28;20471;-68
2024/01/01 01:57:18;;;;;;;17.50;16.90;;;22.50;48.90;;;;;;5000583;28;20450;-69
2024/01/01 01:59:46;;;;;;;17.87;17.37;;;22.50;49.00;;;;;;5004556;28;20480;-69
2024/01/01 02:02:13;;;;;;;17.50;17.00;;;22.50;49.10;;;;;;5011898;28;20490;-68
2024/01/01 02:04:40;;;;;;;17.30;16.77;;;22.50;49.00;;;;;;5000591;28;20510;-69
2024/01/01 02:07:07;;;;;;;17.23;16.63;;;22.50;49.00;;;;;;5000789;28;20478;-69
2024/01/01 02:09:34;;;;;;;17.30;16.60;;;22.50;49.00;;;;;;5007002;28;20478;-69
2024/01/01 02:12:01;;;;;;;16.80;16.30;;;22.50;49.00;;;;;;4997215;28;20494;-69
2024/01/01 02:14:30;;;;;;;21.30;20.60;;;22.50;48.90;;;;;;5000575;28;20480;-69
2024/01/01 02:16:56;;;;;;;21.80;21.10;;;22.50;48.80;;;;;;4998434;28;20807;-70
2024/01/01 02:19:26;;;;;;;17.73;17.23;;;22.50;48.80;;;;;;5007625;28;20875;-69
2024/01/01 02:21:54;;;;;;;17.80;17.23;;;22.50;48.80;;;;;;5004580;28;20458;-68
2024/01/01 02:24:22;;;;;;;17.43;16.83;;;22.50;48.70;;;;;;5002696;28;20501;-69
2024/01/01 02:26:49;;;;;;;16.90;16.30;;;22.50;48.70;;;;;;4992301;28;20875;-69
2024/01/01 02:29:17;;;;;;;17.67;16.90;;;22.50;48.60;;;;;;5007858;28;20516;-69
2024/01/01 02:31:45;;;;;;;16.63;16.03;;;22.50;48.60;;;;;;5004227;28;20497;-69
2024/01/01 02:34:12;;;;;;;17.10;16.60;;;22.50;48.50;;;;;;5003905;28;20474;-69
2024/01/01 02:36:40;;;;;;;18.77;18.17;;;22.50;48.50;;;;;;4996970;28;20959;-69
2024/01/01 02:39:09;;;;;;;16.60;16.00;;;22.50;48.40;;;;;;5003571;28;20822;-69
2024/01/01 02:41:38;;;;;;;18.23;17.53;;;22.50;48.60;;;;;;4995263;28;20462;-69
2024/01/01 02:44:06;;;;;;;17.27;16.70;;;22.50;49.10;;;;;;4997927;28;20529;-69
2024/01/01 02:46:33;;;;;;;17.73;17.07;;;22.50;48.60;;;;;;5000231;28;20481;-69
2024/01/01 02:49:00;;;;;;;17.10;16.60;;;22.50;48.60;;;;;;5000043;28;20881;-69
2024/01/01 02:51:27;;;;;;;17.50;17.00;;;22.50;48.40;;;;;;5001596;28;20469;-72
2024/01/01 02:53:54;;;;;;;17.27;16.77;;;22.50;48.50;;;;;;5004439;28;20442;-69
2024/01/01 02:56:24;;;;;;;17.50;17.00;;;22.50;48.50;;;;;;4995178;28;20478;-69
2024/01/01 02:58:53;;;;;;;16.80;16.30;;;22.50;48.40;;;;;;5006634;28;20450;-69
2024/01/01 03:01:20;;;;;;;17.93;17.33;;;22.50;48.40;;;;;;5000543;28;20493;-69
2024/01/01 03:03:47;;;;;;;18.20;17.60;;;22.50;48.40;;;;;;4999869;28;20529;-69
2024/01/01 03:06:17;;;;;;;17.33;16.77;;;22.50;48.40;;;;;;4999808;28;20470;-68
2024/01/01 03:08:44;;;;;;;16.27;15.77;;;22.50;48.40;;;;;;5002833;28;20434;-69
2024/01/01 03:11:11;;;;;;;18.40;17.80;;;22.50;48.30;;;;;;5003402;28;20499;-69
2024/01/01 03:13:38;;;;;;;16.93;16.43;;;22.50;48.50;;;;;;5003292;28;20497;-69
2024/01/01 03:16:07;;;;;;;17.00;16.50;;;22.50;48.50;;;;;;5003243;28;20439;-69
2024/01/01 03:18:34;;;;;;;17.20;16.70;;;22.50;48.60;;;;;;5003396;28;20494;-69
2024/01/01 03:21:01;;;;;;;17.13;16.57;;;22.50;48.50;;;;;;5009412;28;20470;-71
2024/01/01 03:23:28;;;;;;;16.97;16.40;;;22.50;48.60;;;;;;5005911;28;20563;-69
2024/01/01 03:25:55;;;;;;;16.97;16.47;;;22.50;48.50;;;;;;5006334;28;20478;-69
2024/01/01 03:28:22;;;;;;;17.30;16.80;;;22.50;48.60;;;;;;5005662;28;20471;-69
2024/01/01 03:30:49;;;;;;;17.80;17.20;;;22.50;48.50;;;;;;4999327;28;20482;-69
2024/01/01 03:33:17;;;;;;;17.53;17.03;;;22.50;48.50;;;;;;4998454;28;20487;-69
2024/01/01 03:35:45;;;;;;;17.00;16.40;;;22.50;48.50;;;;;;5006556;28;20469;-69
2024/01/01 03:38:11;;;;;;;17.00;16.50;;;22.50;48.50;;;;;;5014542;28;20504;-69
2024/01/01 03:40:40;;;;;;;17.50;16.90;;;22.50;48.50;;;;;;5014515;28;20931;-69
2024/01/01 03:43:07;;;;;;;17.90;17.30;;;22.50;48.50;;;;;;5014228;28;20462;-69
2024/01/01 03:45:34;;;;;;;18.27;17.70;;;22.50;48.50;;;;;;4995785;28;20471;-69
2024/01/01 03:48:01;;;;;;;22.67;21.97;;;22.50;48.60;;;;;;4994541;28;20443;-71
2024/01/01 03:50:30;;;;;;;18.07;17.47;;;22.50;48.60;;;;;;4994569;28;20478;-68
2024/01/01 03:52:57;;;;;;;17.17;16.60;;;22.50;48.70;;;;;;5005323;28;20883;-68
2024/01/01 03:55:23;;;;;;;18.23;17.57;;;22.50;48.70;;;;;;5014262;28;20438;-73
2024/01/01 03:57:50;;;;;;;17.33;16.83;;;22.50;48.70;;;;;;5014130;28;20480;-69
2024/01/01 04:00:18;;;;;;;16.40;15.90;;;22.50;48.60;;;;;;5014113;28;20477;-69
2024/01/01 04:02:46;;;;;;;17.70;17.20;;;22.50;48.70;;;;;;5013064;28;20490;-68
2024/01/01 04:05:14;;;;;;;17.93;17.33;;;22.50;48.60;;;;;;5013747;28;20482;-69
2024/01/01 04:07:42;;;;;;;18.13;17.60;;;22.50;48.60;;;;;;5013792;28;20480;-69
2024/01/01 04:10:10;;;;;;;18.53;17.83;;;22.50;48.60;;;;;;5013726;28;20470;-69
2024/01/01 04:12:37;;;;;;;20.07;19.40;;;22.50;48.60;;;;;;5013620;28;20889;-68
2024/01/01 04:15:05;;;;;;;17.90;17.40;;;22.50;48.50;;;;;;5013642;28;20442;-68
2024/01/01 04:17:32;;;;;;;17.20;16.70;;;22.50;48.60;;;;;;5013512;28;20477;-70
2024/01/01 04:19:59;;;;;;;17.20;16.60;;;22.50;48.50;;;;;;5013819;28;20548;-68
2024/01/01 04:22:25;;;;;;;17.57;17.00;;;22.50;48.50;;;;;;5013060;28;20486;-68
2024/01/01 04:24:53;;;;;;;17.00;16.50;;;22.50;48.60;;;;;;5013383;28;20957;-68
2024/01/01 04:27:20;;;;;;;17.10;16.60;;;22.50;48.60;;;;;;5013323;28;20250;-68
2024/01/01 04:29:47;;;;;;;17.20;16.70;;;22.50;48.60;;;;;;5013320;28;20489;-68
2024/01/01 04:32:14;;;;;;;18.10;17.50;;;22.50;48.60;;;;;;5012543;28;20469;-68
2024/01/01 04:34:41;;;;;;;17.87;17.27;;;22.50;48.60;;;;;;5013241;28;20500;-68
2024/01/01 04:37:08;;;;;;;18.03;17.33;;;22.60;48.70;;;;;;5013219;28;20477;-68
2024/01/01 04:39:35;;;;;;;18.53;17.93;;;22.60;48.70;;;;;;5013292;28;20864;-68
2024/01/01 04:42:04;;;;;;;17.90;16.93;;;22.50;48.60;;;;;;5012541;28;20509;-68
2024/01/01 04:44:31;;;;;;;17.80;17.30;;;22.60;48.60;;;;;;5012962;28;20514;-68
2024/01/01 04:46:58;;;;;;;17.50;16.93;;;22.50;48.50;;;;;;5013141;28;20944;-68
2024/01/01 04:49:24;;;;;;;18.17;17.30;;;22.60;48.60;;;;;;5013059;28;20888;-68
2024/01/01 04:51:51;;;;;;;18.00;17.30;;;22.60;48.80;;;;;;4999056;28;20894;-68
2024/01/01 04:54:19;;;;;;;18.30;17.80;;;22.60;48.80;;;;;;5011014;28;20477;-68
2024/01/01 04:56:46;;;;;;;17.93;17.13;;;22.60;48.80;;;;;;5012895;28;20870;-68
2024/01/01 04:59:14;;;;;;;17.70;17.20;;;22.60;48.80;;;;;;5012983;28;20477;-68
2024/01/01 05:01:41;;;;;;;20.43;19.83;;;22.60;48.80;;;;;;5012361;28;20979;-68
2024/01/01 05:04:08;;;;;;;18.53;17.93;;;22.60;48.80;;;;;;5012601;28;20915;-68
2024/01/01 05:06:35;;;;;;;18.80;18.20;;;22.60;48.90;;;;;;5012835;28;20474;-68
2024/01/01 05:09:02;;;;;;;19.20;18.60;;;22.70;48.90;;;;;;5013030;28;20485;-68
2024/01/01 05:11:30;;;;;;;19.83;19.03;;;22.70;48.90;;;;;;5012015;28;20893;-68
2024/01/01 05:13:57;;;;;;;19.33;18.73;;;22.70;48.90;;;;;;5012288;28;20438;-68
2024/01/01 05:16:25;;;;;;;20.43;19.73;;;22.70;48.90;;;;;;5012702;28;20481;-68
2024/01/01 05:18:52;;;;;;;19.87;19.07;;;22.70;48.90;;;;;;5012726;28;20481;-68
2024/01/01 05:21:19;;;;;;;20.80;20.20;;;22.70;48.80;;;;;;5012030;28;20490;-68
2024/01/01 05:23:46;;;;;;;19.30;18.70;;;22.70;48.80;;;;;;5012029;28;20480;-69
2024/01/01 05:26:14;;;;;;;19.20;18.60;;;22.70;48.80;;;;;;5012349;28;20488;-68
2024/01/01 05:28:40;;;;;;;19.67;18.97;;;22.70;48.80;;;;;;5012493;28;20469;-69
2024/01/01 05:31:07;;;;;;;19.20;18.70;;;22.70;48.80;;;;;;5011462;28;20494;-68
2024/01/01 05:33:37;;;;;;;20.53;19.83;;;22.70;48.80;;;;;;5012284;28;20489;-68
2024/01/01 05:36:11;;;;;;;18.67;18.10;;;22.70;48.80;;;;;;5012213;28;20446;-68
2024/01/01 05:38:38;;;;;;;18.20;17.60;;;22.70;48.70;;;;;;5012369;28;20580;-68
2024/01/01 05:41:05;;;;;;;19.40;18.73;;;22.80;48.90;;;;;;5011729;28;20516;-68
2024/01/01 05:43:33;;;;;;;18.67;18.10;;;22.80;48.80;;;;;;5012157;28;20524;-68
2024/01/01 05:46:00;;;;;;;20.33;19.53;;;22.80;48.80;;;;;;5012328;28;20569;-68
2024/01/01 05:48:27;;;;;;;19.67;18.97;;;22.80;48.80;;;;;;5012230;28;20478;-68
2024/01/01 05:50:55;;;;;;;20.27;19.57;;;22.80;48.80;;;;;;5011580;28;20479;-68
2024/01/01 05:53:22;;;;;;;18.90;18.30;;;22.80;48.70;;;;;;5011926;28;20489;-68
2024/01/01 05:55:49;;;;;;;19.77;19.17;;;22.80;48.70;;;;;;5012063;28;20489;-68
2024/01/01 05:58:16;;;;;;;19.40;18.80;;;22.80;48.70;;;;;;5012032;28;20446;-68
2024/01/01 06:00:43;;;;;;;19.00;18.40;;;22.80;48.70;;;;;;4995689;28;20489;-68
2024/01/01 06:03:10;;;;;;;18.97;18.40;;;22.80;48.60;;;;;;4992240;28;20479;-71
2024/01/01 06:05:37;;;;;;;19.40;18.80;;;22.80;48.70;;;;;;4992297;28;20874;-68
2024/01/01 06:08:06;;;;;;;20.00;19.40;;;22.80;48.70;;;;;;4992194;28;20479;-68
2024/01/01 06:10:34;;;;;;;18.23;17.73;;;22.90;48.70;;;;;;4992001;28;20443;-68
2024/01/01 06:13:02;;;;;;;19.40;18.80;;;22.90;48.80;;;;;;4992072;28;20517;-68
2024/01/01 06:15:29;;;;;;;20.30;19.53;;;22.90;48.70;;;;;;4992251;28;20815;-69
2024/01/01 06:17:56;;;;;;;20.10;19.40;;;22.90;48.70;;;;;;4992125;28;20474;-69
2024/01/01 06:20:23;;;;;;;19.87;19.13;;;22.90;48.70;;;;;;4991987;28;20485;-68
2024/01/01 06:22:50;;;;;;;19.57;18.97;;;22.90;48.60;;;;;;4991919;28;20996;-68
2024/01/01 06:25:18;;;;;;;21.13;20.40;;;22.90;48.60;;;;;;4992256;28;20521;-68
2024/01/01 06:27:45;;;;;;;21.07;20.40;;;22.90;48.60;;;;;;4992083;28;20462;-68
2024/01/01 06:30:12;;;;;;;20.60;19.90;;;22.90;48.50;;;;;;4991959;28;20475;-69
2024/01/01 06:32:39;;;;;;;19.93;19.33;;;22.90;48.40;;;;;;4991916;28;20497;-68
2024/01/01 06:35:06;;;;;;;21.47;20.87;;;22.90;48.40;;;;;;4992027;28;20485;-68
2024/01/01 06:37:33;;;;;;;21.30;20.60;;;22.90;48.40;;;;;;4991896;28;20466;-69
2024/01/01 06:40:00;;;;;;;19.90;19.10;;;23.00;48.50;;;;;;4991915;28;20952;-68
2024/01/01 06:42:28;;;;;;;20.50;19.80;;;23.00;48.50;;;;;;4993187;28;20954;-68
2024/01/01 06:44:57;;;;;;;19.27;18.67;;;23.00;49.10;;;;;;4995750;28;20478;-68
2024/01/01 06:47:25;;;;;;;19.10;18.60;;;23.00;48.50;;;;;;4996773;28;20489;-69
2024/01/01 06:49:52;;;;;;;20.60;19.80;;;23.00;48.50;;;;;;4995511;28;20474;-69
2024/01/01 06:52:19;;;;;;;20.63;19.93;;;23.00;48.50;;;;;;4995460;28;20501;-68
2024/01/01 06:54:45;;;;;;;19.17;18.50;;;23.00;48.40;;;;;;4995657;28;20442;-68
2024/01/01 06:57:12;;;;;;;19.20;18.60;;;23.00;48.40;;;;;;4995496;28;20474;-69
2024/01/01 06:59:41;;;;;;;20.60;19.90;;;23.10;48.40;;;;;;5012898;28;20931;-69
2024/01/01 07:02:07;;;;;;;20.50;19.80;;;23.00;48.30;;;;;;5014931;28;20496;-69
2024/01/01 07:04:34;;;;;;;19.90;19.20;;;23.00;48.30;;;;;;5015044;28;20513;-69
2024/01/01 07:07:03;;;;;;;22.17;21.47;;;23.10;48.40;;;;;;5004962;28;20866;-69
2024/01/01 07:09:29;;;;;;;21.93;21.23;;;23.00;48.30;;;;;;4995288;28;20447;-69
2024/01/01 07:11:57;;;;;;;22.60;21.80;;;23.10;48.40;;;;;;4995168;28;20474;-69
2024/01/01 07:14:24;;;;;;;22.47;21.77;;;23.10;48.40;;;;;;4995254;28;20443;-69
2024/01/01 07:16:53;;;;;;;20.30;19.60;;;23.10;48.50;;;;;;5002309;28;20470;-69
2024/01/01 07:19:20;;;;;;;19.90;19.20;;;23.10;48.40;;;;;;5014737;28;20446;-69
2024/01/01 07:21:47;;;;;;;19.67;18.97;;;23.20;48.50;;;;;;5014588;28;20465;-69
2024/01/01 07:24:14;;;;;;;19.93;19.33;;;23.10;48.40;;;;;;5014726;28;20441;-69
2024/01/01 07:26:41;;;;;;;21.37;20.50;;;23.10;48.30;;;;;;5008645;28;20443;-69
2024/01/01 07:29:08;;;;;;;19.60;19.00;;;23.20;48.40;;;;;;4995056;28;20474;-69
2024/01/01 07:31:35;;;;;;;21.73;21.03;;;23.20;48.30;;;;;;4994936;28;20498;-69
2024/01/01 07:34:04;;;;;;;21.97;21.27;;;23.20;48.30;;;;;;4995000;28;20449;-69
2024/01/01 07:36:30;;;;;;;20.00;19.33;;;23.20;48.30;;;;;;4998648;28;20939;-69
2024/01/01 07:38:57;;;;;;;20.50;19.80;;;23.20;48.30;;;;;;5014569;28;20481;-69
2024/01/01 07:41:24;;;;;;;20.87;20.27;;;23.20;48.30;;;;;;5014205;28;21148;-69
2024/01/01 07:43:51;;;;;;;20.93;20.03;;;23.20;48.30;;;;;;5006094;28;20477;-70
2024/01/01 07:46:18;;;;;;;20.53;19.83;;;23.20;48.30;;;;;;4994666;28;20510;-69
2024/01/01 07:48:45;;;;;;;19.87;19.27;;;23.20;48.30;;;;;;4994662;28;20563;-69
2024/01/01 07:51:14;;;;;;;19.30;18.80;;;23.20;48.30;;;;;;4994508;28;20917;-69
2024/01/01 07:53:42;;;;;;;19.60;19.00;;;23.20;48.20;;;;;;5000434;28;21168;-69
2024/01/01 07:56:09;;;;;;;20.50;19.80;;;23.20;48.10;;;;;;5014056;28;20446;-69
2024/01/01 07:58:36;;;;;;;20.33;19.73;;;23.20;48.10;;;;;;5014221;28;20482;-69
2024/01/01 08:01:03;;;;;;;20.67;20.07;;;23.30;48.30;;;;;;5014033;28;20442;-69
2024/01/01 08:03:30;;;;;;;20.00;19.40;;;23.20;48.10;;;;;;5013373;28;20469;-70
2024/01/01 08:05:57;;;;;;;20.17;19.47;;;23.30;48.10;;;;;;5013786;28;20517;-69
2024/01/01 08:08:25;;;;;;;21.83;21.13;;;23.20;48.00;;;;;;5014192;28;20445;-69
2024/01/01 08:10:53;;;;;;;20.77;20.07;;;23.20;48.00;;;;;;5013747;28;20448;-69
2024/01/01 08:13:20;;;;;;;22.73;22.00;;;23.20;48.00;;;;;;5006476;28;20447;-69
2024/01/01 08:15:46;;;;;;;21.20;20.50;;;23.30;48.20;;;;;;5013178;28;20434;-69
2024/01/01 08:18:13;;;;;;;21.40;20.70;;;23.30;48.10;;;;;;5013841;28;20478;-68
2024/01/01 08:20:40;;;;;;;20.73;20.13;;;23.30;48.00;;;;;;5013477;28;20481;-69
2024/01/01 08:23:07;;;;;;;22.70;21.90;;;23.30;48.00;;;;;;4998284;28;20501;-68
2024/01/01 08:25:35;;;;;;;21.03;20.40;;;23.30;47.90;;;;;;4993777;28;20513;-69
2024/01/01 08:28:02;;;;;;;21.70;20.83;;;23.30;47.90;;;;;;4994081;28;20442;-69
2024/01/01 08:30:29;;;;;;;20.83;20.13;;;23.30;48.00;;;;;;4993851;28;20470;-69
2024/01/01 08:32:56;;;;;;;22.60;21.53;;;23.30;47.90;;;;;;5006457;28;20486;-68
2024/01/01 08:35:23;;;;;;;21.17;20.30;;;23.30;47.90;;;;;;5013172;28;20522;-69
2024/01/01 08:37:50;;;;;;;20.00;19.40;;;23.30;50.00;;;;;;5012730;28;20925;-68
2024/01/01 08:40:17;;;;;;;20.23;19.53;;;23.30;50.30;;;;;;5013296;28;20485;-68
2024/01/01 08:42:47;;;;;;;21.03;20.10;;;23.30;50.00;;;;;;5001684;28;20513;-71
2024/01/01 08:45:16;;;;;;;19.90;19.30;;;23.30;49.90;;;;;;4993997;28;20479;-72
2024/01/01 08:47:42;;;;;;;21.77;21.07;;;23.30;49.70;;;;;;4993770;28;20450;-69
2024/01/01 08:50:10;;;;;;;22.73;21.93;;;23.30;49.70;;;;;;4993428;28;20841;-69
2024/01/01 08:52:37;;;;;;;23.60;22.60;;;23.20;49.70;;;;;;5002434;28;20985;-68
2024/01/01 08:55:04;;;;;;;23.80;22.60;;;23.20;50.00;;;;;;5013530;28;20856;-72
2024/01/01 08:57:31;;;;;;;22.80;22.10;;;23.20;50.30;;;;;;5013321;28;20484;-71
2024/01/01 08:59:59;;;;;;;23.60;22.90;;;23.20;50.30;;;;;;5013058;28;20481;-70
2024/01/01 09:02:26;;;;;;;22.50;21.80;;;23.20;50.40;;;;;;5002591;28;20525;-70
2024/01/01 09:04:53;;;;;;;23.63;22.87;;;23.20;50.50;;;;;;4993265;28;20475;-69
2024/01/01 09:07:20;;;;;;;23.80;23.00;;;23.20;50.40;;;;;;4994546;28;20479;-68
2024/01/01 09:09:47;;;;;;;23.17;22.37;;;23.20;50.50;;;;;;4994074;28;20442;-69
2024/01/01 09:12:14;;;;;;;23.07;22.17;;;23.20;50.60;;;;;;5001230;28;20524;-63
2024/01/01 09:14:41;;;;;;;23.37;22.57;;;23.20;50.60;;;;;;5012923;28;20474;-66
2024/01/01 09:17:09;;;;;;;23.43;22.47;;;23.20;50.50;;;;;;5012745;28;20477;-66
2024/01/01 09:19:37;;;;;;;22.90;22.10;;;23.20;50.50;;;;;;5012448;28;20485;-70
2024/01/01 09:22:05;;;;;;;23.30;22.50;;;23.20;50.60;;;;;;5005908;28;21000;-71
2024/01/01 09:24:31;;;;;;;23.10;22.20;;;23.20;50.60;;;;;;4993631;28;20954;-68
2024/01/01 09:26:59;;;;;;;23.17;22.27;;;23.20;50.60;;;;;;4999955;28;20916;-70
2024/01/01 09:29:26;;;;;;;23.10;22.37;;;23.20;50.70;;;;;;5012510;28;20472;-69
2024/01/01 09:31:53;;;;;;;23.53;22.73;;;23.20;50.60;;;;;;4999835;28;20493;-70
2024/01/01 09:34:22;;;;;;;24.97;23.93;;;23.10;50.30;;;;;;5011911;28;20472;-71
2024/01/01 09:36:49;;;;;;;24.03;23.23;;;23.10;50.40;;;;;;5012842;28;20481;-73
2024/01/01 09:39:16;;;;;;;23.63;22.87;;;23.10;50.40;;;;;;5012715;28;20473;-66
2024/01/01 09:41:43;;;;;;;23.13;22.43;;;23.10;50.40;;;;;;5011554;28;21028;-67
2024/01/01 09:44:11;;;;;;;24.30;23.50;;;23.10;50.50;;;;;;5012423;28;20478;-70
2024/01/01 09:46:38;;;;;;;23.33;22.33;;;23.10;50.60;;;;;;5011831;28;20488;-68
2024/01/01 09:49:05;;;;;;;20.35;19.65;;;23.00;50.90;;;;;;4991601;28;20445;-67
2024/01/01 09:51:38;;;;;;;25.80;24.90;;;23.10;50.20;;;;;;4992254;28;20224;-70
2024/01/01 09:54:05;;;;;;;24.40;23.60;;;23.20;50.20;;;;;;4992538;28;20486;-68
2024/01/01 09:56:32;;;;;;;21.20;20.40;;;23.20;50.20;;;;;;4991804;28;20945;-67
2024/01/01 09:58:59;;;;;;;22.90;22.20;;;23.20;50.10;;;;;;5009650;28;20698;-66
2024/01/01 10:01:26;;;;;;;23.53;22.63;;;23.20;50.10;;;;;;5011550;28;21057;-64
2024/01/01 10:04:03;;;;;;;22.17;21.27;;;23.30;50.00;;;;;;5011878;28;20492;-69
2024/01/01 10:06:30;;;;;;;18.10;17.40;;;23.30;50.10;;;;;;5010775;28;20454;-64
2024/01/01 10:09:10;;;;;;;22.10;21.40;;;23.40;50.20;;;;;;4993712;28;20518;-65
2024/01/01 10:11:38;;;;;;;21.27;20.67;;;23.50;50.00;;;;;;4992327;28;20510;-71
2024/01/01 10:14:07;;;;;;;22.53;21.33;;;23.50;49.60;;;;;;4992320;28;20443;-65
2024/01/01 10:16:35;;;;;;;20.08;19.42;;;23.50;49.40;;;;;;5004723;28;20443;-68
2024/01/01 10:19:03;;;;;;;23.43;22.63;;;23.50;50.00;;;;;;5015740;28;20238;-68
2024/01/01 10:21:32;;;;;;;23.93;23.03;;;23.50;49.50;;;;;;5015757;28;20550;-66
2024/01/01 10:24:00;;;;;;;22.97;22.17;;;23.50;49.40;;;;;;5013798;28;20430;-65
2024/01/01 10:26:28;;;;;;;23.40;22.40;;;23.50;49.50;;;;;;5015104;28;20522;-66
2024/01/01 10:28:55;;;;;;;22.17;21.47;;;23.50;49.40;;;;;;5015533;28;20484;-63
2024/01/01 10:31:22;;;;;;;23.27;22.57;;;23.50;49.30;;;;;;5015379;28;20501;-65
2024/01/01 10:33:50;;;;;;;22.30;21.60;;;23.50;49.20;;;;;;5013487;28;20507;-63
2024/01/01 10:36:19;;;;;;;23.20;22.40;;;23.50;49.40;;;;;;4995864;28;20441;-67
2024/01/01 10:38:48;;;;;;;23.50;22.70;;;23.50;48.90;;;;;;5008317;28;20449;-68
2024/01/01 10:41:17;;;;;;;23.23;22.43;;;23.50;48.90;;;;;;4996872;28;20466;-68
2024/01/01 10:43:47;;;;;;;22.90;22.20;;;23.50;48.90;;;;;;4995922;28;20461;-68
2024/01/01 10:46:14;;;;;;;24.60;23.80;;;23.50;49.50;;;;;;4995626;28;20490;-66
2024/01/01 10:48:43;;;;;;;24.10;23.30;;;23.60;49.00;;;;;;4995610;28;20482;-67
2024/01/01 10:51:32;;;;;;;23.13;22.20;;;23.60;48.90;;;;;;4998571;28;20541;-65
2024/01/01 10:54:16;;;;;;;21.70;21.00;;;23.60;49.00;;;;;;5015059;28;20485;-66
2024/01/01 10:56:52;;;;;;;23.20;22.40;;;23.60;48.80;;;;;;5015114;28;20470;-66
2024/01/01 10:59:22;;;;;;;23.83;23.03;;;23.60;48.90;;;;;;4995514;28;20478;-65
2024/01/01 11:01:51;;;;;;;23.33;22.43;;;23.60;49.30;;;;;;4995503;28;21001;-66
2024/01/01 11:04:19;;;;;;;22.03;21.33;;;23.60;49.50;;;;;;4995256;28;20454;-65
2024/01/01 11:06:46;;;;;;;22.60;21.90;;;23.60;49.50;;;;;;4995228;28;20993;-65
2024/01/01 11:09:33;;;;;;;23.33;22.63;;;23.60;49.70;;;;;;4995265;28;20482;-66
2024/01/01 11:12:02;;;;;;;22.00;21.30;;;23.60;49.70;;;;;;5002891;28;20465;-65
2024/01/01 11:14:32;;;;;;;22.60;21.90;;;23.60;49.40;;;;;;5014785;28;20481;-66
2024/01/01 11:17:04;;;;;;;21.87;21.17;;;23.60;49.40;;;;;;5014714;28;20442;-65
2024/01/01 11:19:42;;;;;;;23.50;22.73;;;23.60;49.40;;;;;;5012777;28;20928;-66
2024/01/01 11:22:35;;;;;;;22.60;21.90;;;23.60;49.40;;;;;;4994859;28;20545;-68
2024/01/01 11:25:03;;;;;;;21.20;20.40;;;23.60;49.50;;;;;;4986923;28;20829;-67
2024/01/01 11:27:31;;;;;;;23.60;22.70;;;23.60;49.30;;;;;;4994504;28;20847;-67
2024/01/01 11:30:05;;;;;;;22.93;22.23;;;23.60;49.20;;;;;;4999452;28;20521;-66
2024/01/01 11:32:32;;;;;;;24.60;23.80;;;23.60;49.10;;;;;;5014331;28;20489;-64
2024/01/01 11:35:10;;;;;;;22.90;22.20;;;23.60;49.30;;;;;;5014303;28;20474;-67
2024/01/01 11:37:38;;;;;;;23.97;23.17;;;23.60;49.20;;;;;;5014431;28;20496;-66
2024/01/01 11:40:07;;;;;;;23.27;22.50;;;23.60;49.20;;;;;;5012633;28;20482;-66
2024/01/01 11:42:34;;;;;;;22.93;22.23;;;23.60;49.00;;;;;;5013810;28;20489;-65
2024/01/01 11:45:10;;;;;;;22.08;21.40;;;23.60;48.90;;;;;;5013865;28;20942;-66
2024/01/01 11:47:38;;;;;;;21.80;20.90;;;23.60;48.90;;;;;;5014009;28;20672;-67
2024/01/01 11:50:06;;;;;;;21.90;21.20;;;23.60;49.00;;;;;;5009959;28;20482;-66
2024/01/01 11:52:33;;;;;;;22.97;22.27;;;23.60;49.10;;;;;;4994429;28;20491;-67
2024/01/01 11:55:00;;;;;;;22.33;21.30;;;23.60;49.10;;;;;;4994552;28;20471;-67
2024/01/01 11:57:27;;;;;;;24.27;23.50;;;23.60;49.10;;;;;;4994484;28;20963;-68
2024/01/01 11:59:55;;;;;;;23.30;22.60;;;23.60;49.00;;;;;;4996307;28;20470;-66
2024/01/01 12:02:24;;;;;;;22.10;21.30;;;23.60;48.80;;;;;;5013824;28;20466;-67
2024/01/01 12:04:53;;;;;;;32.33;31.23;;;23.60;48.90;;;;;;5014034;28;20993;-64
2024/01/01 12:07:27;;;;;;;31.57;30.47;;;23.50;49.10;;;;;;5013830;28;20482;-66
2024/01/01 12:10:08;;;;;;;31.97;30.80;;;23.50;49.20;;;;;;5012255;28;20441;-65
2024/01/01 12:12:36;;;;;;;18.50;17.80;;;23.50;49.30;;;;;;4993256;28;20487;-72
2024/01/01 12:15:12;;;;;;;20.93;20.33;;;23.50;49.30;;;;;;4994000;28;20204;-67
2024/01/01 12:17:42;;;;;;;21.97;21.37;;;23.50;49.30;;;;;;5006664;28;20475;-67
2024/01/01 12:20:09;;;;;;;18.38;17.77;;;23.60;49.30;;;;;;4993455;28;20465;-71
2024/01/01 12:22:36;;;;;;;19.77;19.17;;;23.60;49.20;;;;;;4994178;28;20234;-70
2024/01/01 12:25:04;;;;;;;20.53;19.47;;;23.70;49.10;;;;;;4993903;28;20473;-68
2024/01/01 12:27:31;;;;;;;18.30;17.77;;;23.70;49.10;;;;;;5004596;28;20454;-70
2024/01/01 12:29:59;;;;;;;20.60;19.97;;;23.70;49.20;;;;;;5013383;28;20243;-67
2024/01/01 12:32:25;;;;;;;22.10;21.20;;;23.70;49.10;;;;;;5013222;28;20466;-66